createdAt,value
2019-04-05T00:03:54.446Z,17.27
2019-04-05T00:06:34.996Z,16.57
2019-04-05T00:09:15.830Z,16.43
2019-04-05T00:11:56.287Z,16.30
2019-04-05T00:14:37.103Z,17.17
2019-04-05T00:17:17.811Z,17.47
2019-04-05T00:19:58.637Z,16.73
2019-04-05T00:22:39.206Z,16.50
2019-04-05T00:25:20.425Z,16.73
2019-04-05T00:28:00.835Z,16.70
2019-04-05T00:30:41.216Z,17.47
2019-04-05T00:33:21.883Z,16.13
2019-04-05T00:39:07.746Z,15.67
2019-04-05T00:45:07.687Z,16.73
2019-04-05T00:47:48.084Z,16.53
2019-04-05T00:50:29.061Z,15.57
2019-04-05T00:53:09.916Z,15.50
2019-04-05T00:55:50.683Z,16.47
2019-04-05T01:01:36.442Z,16.07
2019-04-05T01:04:17.207Z,15.17
2019-04-05T01:06:57.771Z,15.33
2019-04-05T01:09:38.538Z,14.73
2019-04-05T01:12:18.895Z,16.37
2019-04-05T01:15:00.100Z,15.60
2019-04-05T01:17:40.991Z,15.50
2019-04-05T01:20:21.979Z,14.83
2019-04-05T01:23:02.498Z,15.70
2019-04-05T01:25:43.390Z,16.20
2019-04-05T01:28:23.924Z,16.20
2019-04-05T01:31:04.383Z,15.90
2019-04-05T01:33:44.924Z,14.37
2019-04-05T01:36:25.812Z,15.90
2019-04-05T01:39:06.363Z,14.37
2019-04-05T01:41:46.954Z,15.50
2019-04-05T01:44:27.595Z,15.53
2019-04-05T01:47:08.183Z,14.37
2019-04-05T01:49:48.823Z,14.90
2019-04-05T01:52:29.399Z,15.50
2019-04-05T01:55:10.066Z,15.27
2019-04-05T01:57:50.798Z,15.73
2019-04-05T02:00:31.699Z,16.27
2019-04-05T02:03:12.603Z,15.23
2019-04-05T02:05:53.292Z,14.90
2019-04-05T02:08:34.015Z,14.43
2019-04-05T02:11:14.885Z,14.17
2019-04-05T02:13:55.147Z,15.97
2019-04-05T02:16:36.227Z,14.63
2019-04-05T02:19:16.667Z,15.77
2019-04-05T02:21:45.322Z,15.73
2019-04-05T02:24:33.228Z,14.73
2019-04-05T02:27:21.158Z,14.70
2019-04-05T02:30:09.156Z,13.83
2019-04-05T02:32:57.332Z,12.87
2019-04-05T02:35:45.330Z,14.90
2019-04-05T02:38:33.241Z,14.30
2019-04-05T02:41:41.899Z,14.77
2019-04-05T02:44:50.549Z,14.80
2019-04-05T02:47:59.169Z,14.27
2019-04-05T02:51:07.871Z,14.23
2019-04-05T02:54:16.499Z,13.77
2019-04-05T02:57:04.503Z,12.87
2019-04-05T02:59:45.231Z,13.60
2019-04-05T03:02:26.336Z,14.60
2019-04-05T03:05:07.003Z,14.07
2019-04-05T03:07:48.171Z,13.07
2019-04-05T03:10:28.928Z,14.27
2019-04-05T03:13:10.131Z,13.73
2019-04-05T03:15:51.323Z,13.33
2019-04-05T03:18:32.438Z,13.67
2019-04-05T03:21:13.404Z,13.87
2019-04-05T03:23:54.014Z,14.03
2019-04-05T03:26:34.784Z,14.87
2019-04-05T03:29:15.152Z,14.40
2019-04-05T03:31:56.017Z,15.03
2019-04-05T03:34:36.803Z,13.33
2019-04-05T03:37:17.763Z,13.57
2019-04-05T03:39:58.214Z,14.63
2019-04-05T03:42:39.101Z,13.77
2019-04-05T03:45:19.532Z,14.17
2019-04-05T03:48:00.298Z,13.00
2019-04-05T03:50:44.932Z,15.60
2019-04-05T03:53:24.248Z,14.87
2019-04-05T03:56:05.028Z,15.50
2019-04-05T03:58:45.832Z,14.30
2019-04-05T04:01:26.956Z,15.00
2019-04-05T04:04:07.599Z,15.07
2019-04-05T04:06:48.299Z,15.27
2019-04-05T04:09:28.971Z,14.97
2019-04-05T04:12:10.160Z,14.13
2019-04-05T04:14:50.612Z,14.20
2019-04-05T04:17:31.807Z,14.53
2019-04-05T04:20:12.516Z,14.43
2019-04-05T04:22:53.185Z,14.90
2019-04-05T04:25:33.994Z,15.83
2019-04-05T04:28:15.352Z,14.83
2019-04-05T04:30:55.660Z,14.60
2019-04-05T04:33:36.428Z,14.80
2019-04-05T04:36:17.356Z,14.80
2019-04-05T04:38:57.699Z,15.53
2019-04-05T04:41:38.342Z,13.87
2019-04-05T04:44:19.535Z,14.47
2019-04-05T04:47:00.130Z,15.33
2019-04-05T04:49:40.629Z,14.37
2019-04-05T04:52:21.367Z,13.87
2019-04-05T04:55:02.104Z,14.97
2019-04-05T04:57:43.016Z,14.73
2019-04-05T05:00:23.691Z,13.90
2019-04-05T05:03:04.662Z,13.70
2019-04-05T05:05:45.444Z,13.50
2019-04-05T05:08:26.047Z,13.73
2019-04-05T05:11:14.398Z,13.77
2019-04-05T05:13:48.742Z,13.10
2019-04-05T05:16:29.652Z,13.47
2019-04-05T05:19:10.181Z,12.70
2019-04-05T05:21:50.739Z,12.73
2019-04-05T05:24:31.633Z,13.47
2019-04-05T05:27:11.992Z,13.43
2019-04-05T05:29:52.906Z,12.80
2019-04-05T05:32:33.700Z,13.37
2019-04-05T05:35:14.216Z,12.80
2019-04-05T05:37:54.940Z,14.30
2019-04-05T05:40:35.663Z,13.40
2019-04-05T05:43:16.147Z,13.77
2019-04-05T05:45:57.108Z,13.50
2019-04-05T05:48:38.227Z,13.17
2019-04-05T05:51:19.208Z,13.43
2019-04-05T05:57:08.061Z,14.00
2019-04-05T05:59:48.642Z,12.77
2019-04-05T06:02:29.374Z,13.53
2019-04-05T06:05:09.876Z,13.57
2019-04-05T06:07:50.793Z,12.93
2019-04-05T06:10:31.287Z,13.10
2019-04-05T06:13:12.593Z,12.90
2019-04-05T06:15:53.089Z,13.27
2019-04-05T06:18:34.179Z,12.90
2019-04-05T06:21:14.920Z,12.63
2019-04-05T06:23:55.854Z,13.77
2019-04-05T06:26:36.568Z,13.20
2019-04-05T06:29:17.592Z,12.33
2019-04-05T06:31:58.188Z,13.17
2019-04-05T06:34:39.334Z,13.40
2019-04-05T06:37:20.392Z,13.07
2019-04-05T06:40:00.943Z,13.93
2019-04-05T06:42:41.627Z,13.33
2019-04-05T06:45:22.203Z,13.30
2019-04-05T06:48:02.729Z,13.37
2019-04-05T06:50:43.195Z,12.50
2019-04-05T06:53:24.038Z,13.10
2019-04-05T06:56:04.492Z,13.33
2019-04-05T06:58:46.459Z,13.53
2019-04-05T07:01:27.783Z,12.97
2019-04-05T07:04:08.598Z,14.10
2019-04-05T07:06:49.482Z,14.37
2019-04-05T07:09:30.323Z,14.03
2019-04-05T07:12:10.675Z,16.13
2019-04-05T07:14:51.225Z,15.83
2019-04-05T07:17:31.773Z,13.47
2019-04-05T07:20:12.362Z,13.17
2019-04-05T07:22:52.680Z,13.67
2019-04-05T07:25:33.636Z,15.27
2019-04-05T07:28:14.611Z,14.27
2019-04-05T07:30:55.150Z,12.93
2019-04-05T07:33:36.072Z,13.60
2019-04-05T07:36:16.851Z,12.47
2019-04-05T07:38:57.474Z,12.33
2019-04-05T07:41:38.293Z,12.90
2019-04-05T07:44:19.309Z,13.63
2019-04-05T07:46:59.982Z,13.63
2019-04-05T07:49:40.746Z,13.60
2019-04-05T07:52:21.275Z,13.87
2019-04-05T07:55:02.190Z,13.00
2019-04-05T07:57:42.591Z,13.07
2019-04-05T08:00:23.372Z,13.00
2019-04-05T08:03:04.073Z,13.23
2019-04-05T08:05:44.431Z,12.83
2019-04-05T08:08:25.047Z,12.53
2019-04-05T08:11:06.200Z,11.87
2019-04-05T08:13:47.324Z,11.77
2019-04-05T08:16:27.766Z,12.77
2019-04-05T08:19:08.719Z,14.07
2019-04-05T08:21:49.888Z,13.20
2019-04-05T08:24:30.903Z,12.50
2019-04-05T08:27:11.419Z,11.77
2019-04-05T08:29:52.132Z,12.23
2019-04-05T08:32:32.556Z,13.00
2019-04-05T08:38:21.893Z,12.60
2019-04-05T08:41:02.603Z,12.07
2019-04-05T08:43:43.400Z,13.03
2019-04-05T08:49:43.602Z,13.73
2019-04-05T08:52:26.950Z,12.63
2019-04-05T08:55:06.147Z,12.77
2019-04-05T08:57:48.114Z,12.63
2019-04-05T09:00:29.501Z,12.17
2019-04-05T09:03:11.934Z,12.00
2019-04-05T09:05:52.584Z,11.87
2019-04-05T09:08:33.373Z,12.23
2019-04-05T09:11:14.413Z,11.77
2019-04-05T09:13:55.185Z,12.30
2019-04-05T09:16:35.587Z,13.33
2019-04-05T09:19:23.484Z,12.50
2019-04-05T09:21:59.304Z,12.60
2019-04-05T09:24:40.208Z,12.57
2019-04-05T09:27:20.903Z,12.63
2019-04-05T09:30:01.735Z,11.90
2019-04-05T09:32:42.609Z,12.77
2019-04-05T09:35:23.139Z,12.37
2019-04-05T09:38:03.659Z,12.10
2019-04-05T09:40:44.578Z,12.40
2019-04-05T09:43:25.048Z,12.63
2019-04-05T09:46:05.959Z,12.03
2019-04-05T09:48:46.683Z,11.03
2019-04-05T09:51:27.531Z,12.40
2019-04-05T09:54:08.185Z,11.97
2019-04-05T09:56:48.819Z,11.70
2019-04-05T09:59:29.614Z,12.57
2019-04-05T10:02:10.058Z,12.87
2019-04-05T10:04:50.872Z,11.87
2019-04-05T10:07:31.565Z,12.47
2019-04-05T10:10:12.132Z,13.37
2019-04-05T10:12:52.881Z,11.17
2019-04-05T10:15:33.451Z,11.57
2019-04-05T10:18:14.267Z,12.77
2019-04-05T10:20:55.224Z,12.13
2019-04-05T10:23:36.506Z,12.83
2019-04-05T10:26:17.445Z,11.23
2019-04-05T10:28:57.963Z,13.00
2019-04-05T10:31:38.904Z,12.63
2019-04-05T10:34:19.527Z,12.73
2019-04-05T10:37:00.612Z,13.13
2019-04-05T10:39:41.107Z,12.43
2019-04-05T10:42:21.940Z,12.53
2019-04-05T10:45:02.435Z,13.00
2019-04-05T10:47:43.107Z,13.27
2019-04-05T10:50:23.743Z,12.03
2019-04-05T10:53:04.506Z,11.93
2019-04-05T10:55:45.430Z,11.83
2019-04-05T10:58:26.324Z,13.23
2019-04-05T11:01:07.119Z,13.30
2019-04-05T11:03:47.559Z,12.67
2019-04-05T11:06:28.355Z,13.07
2019-04-05T11:09:09.251Z,12.20
2019-04-05T11:11:50.231Z,12.73
2019-04-05T11:14:30.683Z,12.27
2019-04-05T11:17:11.371Z,12.10
2019-04-05T11:19:51.740Z,12.53
2019-04-05T11:22:32.335Z,12.97
2019-04-05T11:25:13.356Z,12.60
2019-04-05T11:27:54.153Z,13.33
2019-04-05T11:30:35.008Z,12.57
2019-04-05T11:33:15.864Z,12.23
2019-04-05T11:35:57.985Z,12.20
2019-04-05T11:38:38.635Z,12.53
2019-04-05T11:41:19.267Z,12.10
2019-04-05T11:44:00.825Z,12.80
2019-04-05T11:46:42.536Z,12.97
2019-04-05T11:49:23.384Z,13.53
2019-04-05T11:52:04.645Z,13.03
2019-04-05T11:54:46.601Z,13.07
2019-04-05T12:00:40.472Z,13.77
2019-04-05T12:03:23.065Z,12.23
2019-04-05T12:06:04.119Z,13.30
2019-04-05T12:08:45.741Z,13.87
2019-04-05T12:11:27.056Z,12.13
2019-04-05T12:14:07.688Z,13.60
2019-04-05T12:16:48.471Z,13.37
2019-04-05T12:19:29.375Z,13.20
2019-04-05T12:22:10.214Z,13.97
2019-04-05T12:24:50.914Z,13.13
2019-04-05T12:30:40.960Z,13.30
2019-04-05T12:33:21.751Z,13.13
2019-04-05T12:35:53.010Z,13.33
2019-04-05T12:38:39.896Z,13.50
2019-04-05T12:41:27.830Z,13.50
2019-04-05T12:44:15.735Z,12.60
2019-04-05T12:47:03.668Z,13.70
2019-04-05T12:49:51.843Z,14.50
2019-04-05T12:52:39.774Z,12.70
2019-04-05T12:55:27.686Z,13.13
2019-04-05T12:58:15.623Z,13.80
2019-04-05T13:00:56.897Z,13.57
2019-04-05T13:03:37.862Z,15.33
2019-04-05T13:06:19.856Z,14.63
2019-04-05T13:09:00.883Z,13.60
2019-04-05T13:11:42.042Z,14.20
2019-04-05T13:14:26.150Z,13.37
2019-04-05T13:17:05.559Z,14.00
2019-04-05T13:19:46.230Z,14.37
2019-04-05T13:22:26.891Z,12.60
2019-04-05T13:25:10.721Z,14.17
2019-04-05T13:27:50.356Z,14.17
2019-04-05T13:30:31.051Z,13.63
2019-04-05T13:33:11.918Z,14.43
2019-04-05T13:35:52.643Z,14.97
2019-04-05T13:38:33.860Z,14.53
2019-04-05T13:41:14.527Z,15.33
2019-04-05T13:43:55.410Z,15.87
2019-04-05T13:46:39.095Z,15.27
2019-04-05T13:49:18.836Z,14.17
2019-04-05T13:51:59.456Z,14.10
2019-04-05T13:54:40.936Z,14.53
2019-04-05T13:57:22.167Z,15.93
2019-04-05T14:00:02.571Z,16.43
2019-04-05T14:02:43.708Z,14.27
2019-04-05T14:05:24.661Z,14.67
2019-04-05T14:08:10.494Z,14.60
2019-04-05T14:10:48.110Z,13.27
2019-04-05T14:13:28.963Z,13.53
2019-04-05T14:16:12.272Z,15.20
2019-04-05T14:18:52.006Z,15.27
2019-04-05T14:21:40.356Z,15.30
2019-04-05T14:24:15.376Z,15.93
2019-04-05T14:26:56.289Z,15.70
2019-04-05T14:29:37.304Z,14.77
2019-04-05T14:32:21.348Z,15.33
2019-04-05T14:35:00.627Z,15.03
2019-04-05T14:37:41.152Z,13.63
2019-04-05T14:40:21.776Z,15.00
2019-04-05T14:43:02.314Z,14.23
2019-04-05T14:45:43.499Z,15.30
2019-04-05T14:48:27.337Z,14.83
2019-04-05T14:51:06.956Z,13.87
2019-04-05T14:53:47.652Z,14.40
2019-04-05T14:56:29.203Z,14.37
2019-04-05T14:59:09.955Z,14.60
2019-04-05T15:01:50.652Z,14.87
2019-04-05T15:04:31.512Z,14.93
2019-04-05T15:07:12.632Z,14.93
2019-04-05T15:09:55.609Z,15.10
2019-04-05T15:12:36.354Z,14.60
2019-04-05T15:15:16.926Z,15.10
2019-04-05T15:17:57.927Z,14.97
2019-04-05T15:20:38.799Z,14.93
2019-04-05T15:23:19.491Z,15.93
2019-04-05T15:25:59.971Z,15.57
2019-04-05T15:28:40.503Z,14.60
2019-04-05T15:31:20.895Z,15.77
2019-04-05T15:34:01.436Z,15.13
2019-04-05T15:36:42.003Z,16.17
2019-04-05T15:39:22.715Z,15.00
2019-04-05T15:42:03.349Z,14.20
2019-04-05T15:44:43.828Z,14.63
2019-04-05T15:47:25.111Z,15.07
2019-04-05T15:50:05.919Z,15.70
2019-04-05T15:52:46.895Z,13.80
2019-04-05T15:55:29.119Z,14.87
2019-04-05T15:58:09.958Z,14.60
2019-04-05T16:00:50.538Z,14.97
2019-04-05T16:03:32.332Z,15.37
2019-04-05T16:06:13.727Z,15.23
2019-04-05T16:08:54.692Z,18.10
2019-04-05T16:11:35.278Z,20.25
2019-04-05T16:14:15.818Z,17.87
2019-04-05T16:16:56.247Z,14.83
2019-04-05T16:19:37.105Z,15.17
2019-04-05T16:22:30.632Z,15.37
2019-04-05T16:25:03.604Z,15.23
2019-04-05T16:27:43.357Z,14.57
2019-04-05T16:30:24.052Z,15.97
2019-04-05T16:33:04.776Z,14.50
2019-04-05T16:35:45.312Z,14.90
2019-04-05T16:38:25.881Z,15.67
2019-04-05T16:41:06.715Z,15.23
2019-04-05T16:43:48.011Z,16.03
2019-04-05T16:46:16.505Z,15.40
2019-04-05T16:49:04.432Z,15.20
2019-04-05T16:51:52.339Z,15.90
2019-04-05T16:54:40.271Z,15.63
2019-04-05T16:57:28.174Z,15.40
2019-04-05T17:00:09.346Z,15.07
2019-04-05T17:02:50.020Z,16.40
2019-04-05T17:05:30.800Z,16.10
2019-04-05T17:08:11.375Z,14.73
2019-04-05T17:10:52.468Z,15.53
2019-04-05T17:13:33.087Z,15.03
2019-04-05T17:16:13.918Z,15.83
2019-04-05T17:18:54.658Z,16.60
2019-04-05T17:21:35.651Z,16.53
2019-04-05T17:24:16.276Z,16.53
2019-04-05T17:26:56.963Z,16.63
2019-04-05T17:29:37.910Z,16.90
2019-04-05T17:32:18.863Z,17.67
2019-04-05T17:34:59.844Z,17.33
2019-04-05T17:37:40.587Z,16.83
2019-04-05T17:40:21.803Z,16.47
2019-04-05T17:43:02.648Z,16.47
2019-04-05T17:45:43.511Z,16.93
2019-04-05T17:48:24.127Z,16.27
2019-04-05T17:51:05.104Z,16.33
2019-04-05T17:53:45.663Z,16.77
2019-04-05T17:56:26.321Z,15.47
2019-04-05T17:59:06.892Z,18.23
2019-04-05T18:01:47.483Z,19.47
2019-04-05T18:04:28.195Z,19.47
2019-04-05T18:07:08.831Z,20.90
2019-04-05T18:09:49.301Z,19.23
2019-04-05T18:12:30.088Z,17.87
2019-04-05T18:15:10.987Z,17.70
2019-04-05T18:17:51.536Z,17.80
2019-04-05T18:20:32.391Z,16.80
2019-04-05T18:23:24.265Z,17.30
2019-04-05T18:25:57.852Z,17.07
2019-04-05T18:28:39.376Z,17.27
2019-04-05T18:31:19.796Z,15.90
2019-04-05T18:34:00.580Z,17.33
2019-04-05T18:36:41.722Z,17.30
2019-04-05T18:39:23.324Z,17.90
2019-04-05T18:42:04.294Z,16.43
2019-04-05T18:44:45.450Z,17.70
2019-04-05T18:47:26.318Z,17.40
2019-04-05T18:50:06.822Z,17.63
2019-04-05T18:52:47.619Z,17.37
2019-04-05T18:58:36.842Z,17.07
2019-04-05T19:01:17.386Z,18.33
2019-04-05T19:03:57.988Z,18.20
2019-04-05T19:06:38.700Z,19.40
2019-04-05T19:09:17.652Z,18.83
2019-04-05T19:12:06.043Z,19.00
2019-04-05T19:14:53.916Z,17.37
2019-04-05T19:17:41.847Z,18.30
2019-04-05T19:20:29.795Z,17.57
2019-04-05T19:23:17.885Z,18.60
2019-04-05T19:26:05.935Z,18.13
2019-04-05T19:28:53.854Z,17.53
2019-04-05T19:50:54.255Z,19.43
2019-04-05T19:53:35.149Z,18.50
2019-04-05T19:56:16.073Z,18.63
2019-04-05T19:58:56.668Z,18.90
2019-04-05T20:01:37.459Z,19.13
2019-04-05T20:04:37.377Z,18.30
2019-04-05T20:07:18.796Z,19.00
2019-04-05T20:09:59.402Z,18.70
2019-04-05T20:12:40.210Z,19.53
2019-04-05T20:15:20.905Z,18.80
2019-04-05T20:18:01.719Z,19.50
2019-04-05T20:20:42.419Z,19.63
2019-04-05T20:23:23.071Z,20.33
2019-04-05T20:26:03.711Z,19.70
2019-04-05T20:28:44.603Z,19.70
2019-04-05T20:31:25.062Z,20.37
2019-04-05T20:34:06.113Z,19.93
2019-04-05T20:36:46.523Z,19.50
2019-04-05T20:39:27.368Z,18.47
2019-04-05T20:42:07.844Z,19.43
2019-04-05T20:44:48.576Z,19.63
2019-04-05T20:47:29.086Z,19.23
2019-04-05T20:50:09.866Z,20.33
2019-04-05T20:52:50.334Z,19.97
2019-04-05T20:55:31.203Z,20.07
2019-04-05T20:58:12.074Z,19.53
2019-04-05T21:00:52.774Z,20.30
2019-04-05T21:03:33.593Z,20.30
2019-04-05T21:06:14.241Z,18.20
2019-04-05T21:08:54.839Z,20.50
2019-04-05T21:11:35.575Z,19.43
2019-04-05T21:14:16.536Z,18.70
2019-04-05T21:16:57.245Z,18.70
2019-04-05T21:19:38.159Z,19.43
2019-04-05T21:22:18.775Z,20.17
2019-04-05T21:24:59.714Z,19.63
2019-04-05T21:27:40.257Z,20.07
2019-04-05T21:30:20.739Z,18.77
2019-04-05T21:33:01.295Z,18.87
2019-04-05T21:35:42.013Z,19.50
2019-04-05T21:38:22.502Z,19.23
2019-04-05T21:41:03.491Z,19.27
2019-04-05T21:43:44.320Z,18.90
2019-04-05T21:46:25.275Z,18.40
2019-04-05T21:49:06.087Z,17.70
2019-04-05T21:51:47.186Z,17.30
2019-04-05T21:54:27.724Z,17.83
2019-04-05T21:57:08.549Z,19.47
2019-04-05T21:59:49.319Z,18.40
2019-04-05T22:02:29.968Z,17.10
2019-04-05T22:05:10.871Z,16.97
2019-04-05T22:07:54.671Z,17.63
2019-04-05T22:10:35.705Z,18.13
2019-04-05T22:13:16.451Z,19.50
2019-04-05T22:15:57.243Z,19.53
2019-04-05T22:18:38.040Z,19.40
2019-04-05T22:24:23.718Z,22.63
2019-04-05T22:27:04.544Z,22.57
2019-04-05T22:29:45.370Z,23.57
2019-04-05T22:32:26.068Z,24.27
2019-04-05T22:35:07.059Z,22.20
2019-04-05T22:40:56.344Z,23.73
2019-04-05T22:43:37.082Z,22.90
2019-04-05T22:46:17.867Z,24.17
2019-04-05T22:48:58.530Z,23.97
2019-04-05T22:51:39.108Z,23.90
2019-04-05T22:54:19.819Z,22.10
2019-04-05T22:57:00.436Z,23.03
2019-04-05T22:59:41.331Z,24.70
2019-04-05T23:02:22.117Z,26.23
2019-04-05T23:05:02.946Z,24.33
2019-04-05T23:07:43.480Z,25.63
2019-04-05T23:10:24.158Z,23.93
2019-04-05T23:12:52.777Z,24.60
2019-04-05T23:15:40.662Z,26.13
2019-04-05T23:18:28.647Z,26.30
2019-04-05T23:21:16.586Z,25.47
2019-04-05T23:24:04.518Z,25.00
2019-04-05T23:26:52.425Z,25.87
2019-04-05T23:29:40.527Z,26.57
2019-04-05T23:32:28.444Z,26.57
2019-04-05T23:35:16.367Z,25.67
2019-04-05T23:38:04.312Z,27.07
2019-04-05T23:40:52.228Z,26.80
2019-04-05T23:43:40.159Z,26.17
2019-04-05T23:46:28.063Z,26.03
2019-04-05T23:52:10.751Z,26.60
2019-04-05T23:54:58.683Z,26.67
2019-04-05T23:57:46.591Z,25.87
